sensor_id;sensor_type;location;lat;lon;timestamp;P1;durP1;ratioP1;P2;durP2;ratioP2
47625;SDS011;33342;45.574;9.252;2023-02-28T00:01:30;15.30;;;9.57;;
47625;SDS011;33342;45.574;9.252;2023-02-28T00:03:58;19.02;;;9.27;;
47625;SDS011;33342;45.574;9.252;2023-02-28T00:06:25;12.25;;;7.88;;
47625;SDS011;33342;45.574;9.252;2023-02-28T00:08:52;14.73;;;8.73;;
47625;SDS011;33342;45.574;9.252;2023-02-28T00:11:19;15.40;;;8.38;;
47625;SDS011;33342;45.574;9.252;2023-02-28T00:13:47;12.20;;;7.68;;
47625;SDS011;33342;45.574;9.252;2023-02-28T00:16:15;12.73;;;6.90;;
47625;SDS011;33342;45.574;9.252;2023-02-28T00:18:45;12.73;;;7.57;;
47625;SDS011;33342;45.574;9.252;2023-02-28T00:21:14;15.82;;;7.40;;
47625;SDS011;33342;45.574;9.252;2023-02-28T00:23:42;14.02;;;6.43;;
47625;SDS011;33342;45.574;9.252;2023-02-28T00:26:09;12.40;;;6.60;;
47625;SDS011;33342;45.574;9.252;2023-02-28T00:28:37;11.10;;;5.65;;
47625;SDS011;33342;45.574;9.252;2023-02-28T00:31:04;12.50;;;5.75;;
47625;SDS011;33342;45.574;9.252;2023-02-28T00:33:32;12.02;;;5.35;;
47625;SDS011;33342;45.574;9.252;2023-02-28T00:36:06;10.48;;;5.80;;
47625;SDS011;33342;45.574;9.252;2023-02-28T00:38:35;13.82;;;5.97;;
47625;SDS011;33342;45.574;9.252;2023-02-28T00:41:03;14.38;;;5.38;;
47625;SDS011;33342;45.574;9.252;2023-02-28T00:43:35;9.75;;;5.07;;
47625;SDS011;33342;45.574;9.252;2023-02-28T00:46:04;10.20;;;5.43;;
47625;SDS011;33342;45.574;9.252;2023-02-28T00:48:32;11.68;;;5.32;;
47625;SDS011;33342;45.574;9.252;2023-02-28T00:50:59;10.55;;;5.25;;
47625;SDS011;33342;45.574;9.252;2023-02-28T00:53:27;11.57;;;4.97;;
47625;SDS011;33342;45.574;9.252;2023-02-28T00:55:56;9.65;;;5.28;;
47625;SDS011;33342;45.574;9.252;2023-02-28T00:58:25;10.52;;;4.78;;
47625;SDS011;33342;45.574;9.252;2023-02-28T01:00:52;10.88;;;5.45;;
47625;SDS011;33342;45.574;9.252;2023-02-28T01:03:20;11.30;;;5.50;;
47625;SDS011;33342;45.574;9.252;2023-02-28T01:05:48;13.00;;;5.53;;
47625;SDS011;33342;45.574;9.252;2023-02-28T01:08:15;18.80;;;6.05;;
47625;SDS011;33342;45.574;9.252;2023-02-28T01:10:42;12.98;;;5.15;;
47625;SDS011;33342;45.574;9.252;2023-02-28T01:13:10;10.27;;;5.30;;
47625;SDS011;33342;45.574;9.252;2023-02-28T01:15:38;9.77;;;4.85;;
47625;SDS011;33342;45.574;9.252;2023-02-28T01:18:11;11.25;;;5.40;;
47625;SDS011;33342;45.574;9.252;2023-02-28T01:20:38;9.27;;;5.13;;
47625;SDS011;33342;45.574;9.252;2023-02-28T01:23:05;12.88;;;5.30;;
47625;SDS011;33342;45.574;9.252;2023-02-28T01:25:36;11.20;;;5.93;;
47625;SDS011;33342;45.574;9.252;2023-02-28T01:28:04;10.85;;;5.93;;
47625;SDS011;33342;45.574;9.252;2023-02-28T01:30:33;11.52;;;5.95;;
47625;SDS011;33342;45.574;9.252;2023-02-28T01:33:00;10.05;;;5.88;;
47625;SDS011;33342;45.574;9.252;2023-02-28T01:35:27;13.32;;;6.05;;
47625;SDS011;33342;45.574;9.252;2023-02-28T01:37:54;11.00;;;6.10;;
47625;SDS011;33342;45.574;9.252;2023-02-28T01:40:24;11.13;;;5.93;;
47625;SDS011;33342;45.574;9.252;2023-02-28T01:42:51;12.50;;;5.78;;
47625;SDS011;33342;45.574;9.252;2023-02-28T01:45:23;11.35;;;5.97;;
47625;SDS011;33342;45.574;9.252;2023-02-28T01:48:03;13.02;;;6.38;;
47625;SDS011;33342;45.574;9.252;2023-02-28T01:50:34;11.52;;;6.45;;
47625;SDS011;33342;45.574;9.252;2023-02-28T01:53:06;14.90;;;6.47;;
47625;SDS011;33342;45.574;9.252;2023-02-28T01:55:37;14.73;;;7.10;;
47625;SDS011;33342;45.574;9.252;2023-02-28T01:58:04;11.60;;;6.30;;
47625;SDS011;33342;45.574;9.252;2023-02-28T02:00:33;12.80;;;6.63;;
47625;SDS011;33342;45.574;9.252;2023-02-28T02:03:03;12.65;;;6.85;;
47625;SDS011;33342;45.574;9.252;2023-02-28T02:05:34;14.35;;;6.85;;
47625;SDS011;33342;45.574;9.252;2023-02-28T02:08:09;12.75;;;7.32;;
47625;SDS011;33342;45.574;9.252;2023-02-28T02:21:47;13.25;;;6.38;;
47625;SDS011;33342;45.574;9.252;2023-02-28T02:24:43;11.90;;;6.53;;
47625;SDS011;33342;45.574;9.252;2023-02-28T02:35:40;13.18;;;6.28;;
47625;SDS011;33342;45.574;9.252;2023-02-28T02:38:27;12.00;;;6.13;;
47625;SDS011;33342;45.574;9.252;2023-02-28T02:41:08;14.98;;;6.82;;
47625;SDS011;33342;45.574;9.252;2023-02-28T02:43:52;11.00;;;6.50;;
47625;SDS011;33342;45.574;9.252;2023-02-28T02:46:22;11.52;;;5.85;;
47625;SDS011;33342;45.574;9.252;2023-02-28T02:48:55;14.90;;;6.53;;
47625;SDS011;33342;45.574;9.252;2023-02-28T02:51:24;12.68;;;6.57;;
47625;SDS011;33342;45.574;9.252;2023-02-28T02:54:00;14.27;;;6.03;;
47625;SDS011;33342;45.574;9.252;2023-02-28T02:56:34;10.43;;;6.10;;
47625;SDS011;33342;45.574;9.252;2023-02-28T02:59:04;12.15;;;6.60;;
47625;SDS011;33342;45.574;9.252;2023-02-28T03:01:36;13.88;;;6.45;;
47625;SDS011;33342;45.574;9.252;2023-02-28T03:04:07;10.95;;;5.90;;
47625;SDS011;33342;45.574;9.252;2023-02-28T03:06:37;14.15;;;6.15;;
47625;SDS011;33342;45.574;9.252;2023-02-28T03:09:04;12.45;;;7.50;;
47625;SDS011;33342;45.574;9.252;2023-02-28T03:11:31;12.60;;;6.30;;
47625;SDS011;33342;45.574;9.252;2023-02-28T03:27:38;12.57;;;6.93;;
47625;SDS011;33342;45.574;9.252;2023-02-28T03:33:16;14.77;;;6.60;;
47625;SDS011;33342;45.574;9.252;2023-02-28T03:35:56;12.50;;;6.15;;
47625;SDS011;33342;45.574;9.252;2023-02-28T03:38:29;12.13;;;7.00;;
47625;SDS011;33342;45.574;9.252;2023-02-28T03:41:12;11.55;;;5.80;;
47625;SDS011;33342;45.574;9.252;2023-02-28T03:44:04;13.02;;;6.97;;
47625;SDS011;33342;45.574;9.252;2023-02-28T03:46:36;9.90;;;6.18;;
47625;SDS011;33342;45.574;9.252;2023-02-28T03:49:31;13.70;;;6.82;;
47625;SDS011;33342;45.574;9.252;2023-02-28T03:52:02;13.05;;;6.78;;
47625;SDS011;33342;45.574;9.252;2023-02-28T03:54:32;14.30;;;7.47;;
47625;SDS011;33342;45.574;9.252;2023-02-28T04:03:00;13.75;;;7.40;;
47625;SDS011;33342;45.574;9.252;2023-02-28T04:05:28;13.05;;;7.20;;
47625;SDS011;33342;45.574;9.252;2023-02-28T04:08:05;15.65;;;7.20;;
47625;SDS011;33342;45.574;9.252;2023-02-28T04:10:33;12.00;;;6.85;;
47625;SDS011;33342;45.574;9.252;2023-02-28T04:13:00;10.35;;;6.10;;
47625;SDS011;33342;45.574;9.252;2023-02-28T04:15:27;17.80;;;6.47;;
47625;SDS011;33342;45.574;9.252;2023-02-28T04:17:54;17.50;;;7.15;;
47625;SDS011;33342;45.574;9.252;2023-02-28T04:20:21;14.77;;;6.68;;
47625;SDS011;33342;45.574;9.252;2023-02-28T04:22:48;13.15;;;6.90;;
47625;SDS011;33342;45.574;9.252;2023-02-28T04:25:15;12.18;;;6.95;;
47625;SDS011;33342;45.574;9.252;2023-02-28T04:27:42;13.32;;;6.97;;
47625;SDS011;33342;45.574;9.252;2023-02-28T04:30:11;14.98;;;7.45;;
47625;SDS011;33342;45.574;9.252;2023-02-28T04:32:38;19.10;;;7.55;;
47625;SDS011;33342;45.574;9.252;2023-02-28T04:35:06;14.55;;;6.88;;
47625;SDS011;33342;45.574;9.252;2023-02-28T04:37:34;15.15;;;7.63;;
47625;SDS011;33342;45.574;9.252;2023-02-28T04:40:03;13.88;;;7.05;;
47625;SDS011;33342;45.574;9.252;2023-02-28T04:42:30;14.40;;;6.88;;
47625;SDS011;33342;45.574;9.252;2023-02-28T04:45:02;12.98;;;6.53;;
47625;SDS011;33342;45.574;9.252;2023-02-28T04:47:30;11.32;;;6.80;;
47625;SDS011;33342;45.574;9.252;2023-02-28T04:49:57;11.95;;;6.95;;
47625;SDS011;33342;45.574;9.252;2023-02-28T04:52:24;13.63;;;6.93;;
47625;SDS011;33342;45.574;9.252;2023-02-28T04:54:54;11.88;;;6.53;;
47625;SDS011;33342;45.574;9.252;2023-02-28T04:57:21;12.75;;;7.03;;
47625;SDS011;33342;45.574;9.252;2023-02-28T04:59:47;13.57;;;6.25;;
47625;SDS011;33342;45.574;9.252;2023-02-28T05:02:14;12.45;;;6.80;;
47625;SDS011;33342;45.574;9.252;2023-02-28T05:04:41;12.73;;;6.28;;
47625;SDS011;33342;45.574;9.252;2023-02-28T05:07:09;11.20;;;6.15;;
47625;SDS011;33342;45.574;9.252;2023-02-28T05:09:36;13.27;;;6.97;;
47625;SDS011;33342;45.574;9.252;2023-02-28T05:12:03;11.50;;;6.53;;
47625;SDS011;33342;45.574;9.252;2023-02-28T05:14:30;11.80;;;6.35;;
47625;SDS011;33342;45.574;9.252;2023-02-28T05:16:57;15.43;;;7.50;;
47625;SDS011;33342;45.574;9.252;2023-02-28T05:19:24;11.73;;;6.53;;
47625;SDS011;33342;45.574;9.252;2023-02-28T05:21:54;12.43;;;7.03;;
47625;SDS011;33342;45.574;9.252;2023-02-28T05:24:22;11.50;;;6.50;;
47625;SDS011;33342;45.574;9.252;2023-02-28T05:26:50;14.38;;;7.07;;
47625;SDS011;33342;45.574;9.252;2023-02-28T05:29:19;11.35;;;6.75;;
47625;SDS011;33342;45.574;9.252;2023-02-28T05:31:47;14.82;;;6.90;;
47625;SDS011;33342;45.574;9.252;2023-02-28T05:34:14;13.50;;;7.53;;
47625;SDS011;33342;45.574;9.252;2023-02-28T05:36:42;14.20;;;6.70;;
47625;SDS011;33342;45.574;9.252;2023-02-28T05:39:09;12.80;;;6.97;;
47625;SDS011;33342;45.574;9.252;2023-02-28T05:41:40;12.82;;;7.50;;
47625;SDS011;33342;45.574;9.252;2023-02-28T05:44:08;14.18;;;8.20;;
47625;SDS011;33342;45.574;9.252;2023-02-28T05:46:35;12.30;;;7.07;;
47625;SDS011;33342;45.574;9.252;2023-02-28T05:49:03;13.43;;;7.40;;
47625;SDS011;33342;45.574;9.252;2023-02-28T05:51:30;15.85;;;8.48;;
47625;SDS011;33342;45.574;9.252;2023-02-28T05:54:00;14.52;;;7.03;;
47625;SDS011;33342;45.574;9.252;2023-02-28T05:56:28;15.57;;;7.25;;
47625;SDS011;33342;45.574;9.252;2023-02-28T05:58:55;14.40;;;7.22;;
47625;SDS011;33342;45.574;9.252;2023-02-28T06:01:35;14.40;;;8.15;;
47625;SDS011;33342;45.574;9.252;2023-02-28T06:04:05;14.43;;;8.43;;
47625;SDS011;33342;45.574;9.252;2023-02-28T06:06:36;14.90;;;8.00;;
47625;SDS011;33342;45.574;9.252;2023-02-28T06:09:04;14.25;;;8.38;;
47625;SDS011;33342;45.574;9.252;2023-02-28T06:11:32;13.88;;;7.72;;
47625;SDS011;33342;45.574;9.252;2023-02-28T06:14:00;14.52;;;7.30;;
47625;SDS011;33342;45.574;9.252;2023-02-28T06:16:28;17.70;;;8.07;;
47625;SDS011;33342;45.574;9.252;2023-02-28T06:18:57;15.45;;;7.78;;
47625;SDS011;33342;45.574;9.252;2023-02-28T06:21:25;16.40;;;8.02;;
47625;SDS011;33342;45.574;9.252;2023-02-28T06:23:55;15.68;;;8.70;;
47625;SDS011;33342;45.574;9.252;2023-02-28T06:26:23;14.20;;;7.63;;
47625;SDS011;33342;45.574;9.252;2023-02-28T06:28:50;18.20;;;8.40;;
47625;SDS011;33342;45.574;9.252;2023-02-28T06:31:18;14.15;;;8.35;;
47625;SDS011;33342;45.574;9.252;2023-02-28T06:33:45;15.25;;;9.20;;
47625;SDS011;33342;45.574;9.252;2023-02-28T06:36:14;19.50;;;8.75;;
47625;SDS011;33342;45.574;9.252;2023-02-28T06:38:42;15.00;;;8.30;;
47625;SDS011;33342;45.574;9.252;2023-02-28T06:41:10;17.23;;;9.00;;
47625;SDS011;33342;45.574;9.252;2023-02-28T06:43:39;16.45;;;9.27;;
47625;SDS011;33342;45.574;9.252;2023-02-28T06:46:08;17.70;;;10.23;;
47625;SDS011;33342;45.574;9.252;2023-02-28T06:48:37;17.35;;;9.27;;
47625;SDS011;33342;45.574;9.252;2023-02-28T06:51:15;16.13;;;9.25;;
47625;SDS011;33342;45.574;9.252;2023-02-28T06:53:48;18.70;;;8.77;;
47625;SDS011;33342;45.574;9.252;2023-02-28T06:56:16;17.20;;;9.45;;
47625;SDS011;33342;45.574;9.252;2023-02-28T06:58:50;15.68;;;9.23;;
47625;SDS011;33342;45.574;9.252;2023-02-28T07:01:19;17.70;;;9.35;;
47625;SDS011;33342;45.574;9.252;2023-02-28T07:03:47;20.45;;;10.10;;
47625;SDS011;33342;45.574;9.252;2023-02-28T07:06:19;15.93;;;8.55;;
47625;SDS011;33342;45.574;9.252;2023-02-28T07:08:49;17.00;;;9.32;;
47625;SDS011;33342;45.574;9.252;2023-02-28T07:11:17;17.60;;;9.05;;
47625;SDS011;33342;45.574;9.252;2023-02-28T07:13:44;15.68;;;8.98;;
47625;SDS011;33342;45.574;9.252;2023-02-28T07:16:13;16.55;;;9.70;;
47625;SDS011;33342;45.574;9.252;2023-02-28T07:18:41;21.45;;;10.07;;
47625;SDS011;33342;45.574;9.252;2023-02-28T07:21:08;19.38;;;10.48;;
47625;SDS011;33342;45.574;9.252;2023-02-28T07:23:37;18.20;;;10.10;;
47625;SDS011;33342;45.574;9.252;2023-02-28T07:26:05;17.45;;;10.10;;
47625;SDS011;33342;45.574;9.252;2023-02-28T07:28:32;16.50;;;9.98;;
47625;SDS011;33342;45.574;9.252;2023-02-28T07:31:06;17.92;;;10.63;;
47625;SDS011;33342;45.574;9.252;2023-02-28T07:33:33;18.77;;;9.88;;
47625;SDS011;33342;45.574;9.252;2023-02-28T07:36:01;19.10;;;10.35;;
47625;SDS011;33342;45.574;9.252;2023-02-28T07:38:36;22.48;;;10.88;;
47625;SDS011;33342;45.574;9.252;2023-02-28T07:41:04;18.75;;;11.20;;
47625;SDS011;33342;45.574;9.252;2023-02-28T07:43:31;20.60;;;10.05;;
47625;SDS011;33342;45.574;9.252;2023-02-28T07:46:05;21.15;;;9.70;;
47625;SDS011;33342;45.574;9.252;2023-02-28T07:48:34;16.75;;;10.27;;
47625;SDS011;33342;45.574;9.252;2023-02-28T07:51:01;18.20;;;10.68;;
47625;SDS011;33342;45.574;9.252;2023-02-28T07:53:29;19.88;;;11.50;;
47625;SDS011;33342;45.574;9.252;2023-02-28T07:55:57;18.38;;;10.43;;
47625;SDS011;33342;45.574;9.252;2023-02-28T07:58:27;19.48;;;10.30;;
47625;SDS011;33342;45.574;9.252;2023-02-28T08:00:55;21.55;;;11.20;;
47625;SDS011;33342;45.574;9.252;2023-02-28T08:03:23;22.20;;;10.82;;
47625;SDS011;33342;45.574;9.252;2023-02-28T08:05:50;25.60;;;10.70;;
47625;SDS011;33342;45.574;9.252;2023-02-28T08:08:18;18.58;;;10.15;;
47625;SDS011;33342;45.574;9.252;2023-02-28T08:10:45;17.13;;;10.88;;
47625;SDS011;33342;45.574;9.252;2023-02-28T08:13:12;18.67;;;10.60;;
47625;SDS011;33342;45.574;9.252;2023-02-28T08:15:40;19.98;;;10.52;;
47625;SDS011;33342;45.574;9.252;2023-02-28T08:18:09;20.25;;;11.18;;
47625;SDS011;33342;45.574;9.252;2023-02-28T08:20:36;22.30;;;11.18;;
47625;SDS011;33342;45.574;9.252;2023-02-28T08:23:03;20.85;;;11.05;;
47625;SDS011;33342;45.574;9.252;2023-02-28T08:25:30;20.50;;;11.73;;
47625;SDS011;33342;45.574;9.252;2023-02-28T08:27:57;20.58;;;10.57;;
47625;SDS011;33342;45.574;9.252;2023-02-28T08:30:24;21.45;;;12.10;;
47625;SDS011;33342;45.574;9.252;2023-02-28T08:32:51;18.40;;;10.82;;
47625;SDS011;33342;45.574;9.252;2023-02-28T08:35:18;23.13;;;10.98;;
47625;SDS011;33342;45.574;9.252;2023-02-28T08:37:47;19.48;;;10.57;;
47625;SDS011;33342;45.574;9.252;2023-02-28T08:40:15;16.92;;;10.60;;
47625;SDS011;33342;45.574;9.252;2023-02-28T08:42:45;17.33;;;10.68;;
47625;SDS011;33342;45.574;9.252;2023-02-28T08:45:12;18.05;;;10.52;;
47625;SDS011;33342;45.574;9.252;2023-02-28T08:47:40;22.30;;;11.70;;
47625;SDS011;33342;45.574;9.252;2023-02-28T08:50:07;22.50;;;11.43;;
47625;SDS011;33342;45.574;9.252;2023-02-28T08:52:35;17.58;;;10.35;;
47625;SDS011;33342;45.574;9.252;2023-02-28T08:55:02;17.45;;;10.25;;
47625;SDS011;33342;45.574;9.252;2023-02-28T08:57:29;17.05;;;10.48;;
47625;SDS011;33342;45.574;9.252;2023-02-28T08:59:56;19.80;;;10.55;;
47625;SDS011;33342;45.574;9.252;2023-02-28T09:02:23;18.17;;;11.25;;
47625;SDS011;33342;45.574;9.252;2023-02-28T09:04:50;23.65;;;13.45;;
47625;SDS011;33342;45.574;9.252;2023-02-28T09:07:17;20.95;;;10.20;;
47625;SDS011;33342;45.574;9.252;2023-02-28T09:09:44;22.23;;;11.90;;
47625;SDS011;33342;45.574;9.252;2023-02-28T09:12:21;20.58;;;10.93;;
47625;SDS011;33342;45.574;9.252;2023-02-28T09:14:52;18.33;;;10.02;;
47625;SDS011;33342;45.574;9.252;2023-02-28T09:17:19;16.73;;;10.38;;
47625;SDS011;33342;45.574;9.252;2023-02-28T09:19:49;18.98;;;10.10;;
47625;SDS011;33342;45.574;9.252;2023-02-28T09:22:16;19.27;;;10.65;;
47625;SDS011;33342;45.574;9.252;2023-02-28T09:24:43;17.20;;;11.77;;
47625;SDS011;33342;45.574;9.252;2023-02-28T09:27:11;18.73;;;10.88;;
47625;SDS011;33342;45.574;9.252;2023-02-28T09:29:38;20.00;;;10.77;;
47625;SDS011;33342;45.574;9.252;2023-02-28T09:32:05;17.42;;;10.75;;
47625;SDS011;33342;45.574;9.252;2023-02-28T09:34:32;18.50;;;10.77;;
47625;SDS011;33342;45.574;9.252;2023-02-28T09:36:59;17.90;;;10.88;;
47625;SDS011;33342;45.574;9.252;2023-02-28T09:39:27;19.75;;;11.23;;
47625;SDS011;33342;45.574;9.252;2023-02-28T09:41:55;20.52;;;11.32;;
47625;SDS011;33342;45.574;9.252;2023-02-28T09:44:25;17.75;;;10.32;;
47625;SDS011;33342;45.574;9.252;2023-02-28T09:49:44;17.98;;;10.23;;
47625;SDS011;33342;45.574;9.252;2023-02-28T09:52:24;21.77;;;11.40;;
47625;SDS011;33342;45.574;9.252;2023-02-28T09:55:00;17.85;;;10.77;;
47625;SDS011;33342;45.574;9.252;2023-02-28T09:57:48;19.40;;;10.63;;
47625;SDS011;33342;45.574;9.252;2023-02-28T10:05:49;17.05;;;9.88;;
47625;SDS011;33342;45.574;9.252;2023-02-28T10:08:22;22.83;;;11.30;;
47625;SDS011;33342;45.574;9.252;2023-02-28T10:11:09;18.48;;;10.52;;
47625;SDS011;33342;45.574;9.252;2023-02-28T10:19:03;20.42;;;12.00;;
47625;SDS011;33342;45.574;9.252;2023-02-28T10:21:47;19.23;;;10.10;;
47625;SDS011;33342;45.574;9.252;2023-02-28T10:24:38;22.63;;;10.52;;
47625;SDS011;33342;45.574;9.252;2023-02-28T10:27:15;18.60;;;10.13;;
47625;SDS011;33342;45.574;9.252;2023-02-28T10:29:52;19.85;;;10.43;;
47625;SDS011;33342;45.574;9.252;2023-02-28T10:32:25;18.25;;;10.73;;
47625;SDS011;33342;45.574;9.252;2023-02-28T10:37:46;19.33;;;10.80;;
47625;SDS011;33342;45.574;9.252;2023-02-28T10:43:22;18.48;;;11.43;;
47625;SDS011;33342;45.574;9.252;2023-02-28T10:45:52;18.98;;;12.23;;
47625;SDS011;33342;45.574;9.252;2023-02-28T10:48:37;16.67;;;10.82;;
47625;SDS011;33342;45.574;9.252;2023-02-28T10:51:13;18.52;;;11.88;;
47625;SDS011;33342;45.574;9.252;2023-02-28T10:56:27;17.15;;;11.32;;
47625;SDS011;33342;45.574;9.252;2023-02-28T10:58:59;21.77;;;12.05;;
47625;SDS011;33342;45.574;9.252;2023-02-28T11:01:46;21.08;;;12.50;;
47625;SDS011;33342;45.574;9.252;2023-02-28T11:06:57;22.48;;;13.10;;
47625;SDS011;33342;45.574;9.252;2023-02-28T11:09:30;20.10;;;12.00;;
47625;SDS011;33342;45.574;9.252;2023-02-28T11:12:06;21.63;;;12.57;;
47625;SDS011;33342;45.574;9.252;2023-02-28T11:14:48;21.50;;;12.27;;
47625;SDS011;33342;45.574;9.252;2023-02-28T11:17:26;20.35;;;12.32;;
47625;SDS011;33342;45.574;9.252;2023-02-28T11:19:59;19.85;;;12.20;;
47625;SDS011;33342;45.574;9.252;2023-02-28T11:22:31;22.65;;;12.20;;
47625;SDS011;33342;45.574;9.252;2023-02-28T11:25:08;24.48;;;13.98;;
47625;SDS011;33342;45.574;9.252;2023-02-28T11:27:46;22.85;;;13.57;;
47625;SDS011;33342;45.574;9.252;2023-02-28T11:30:29;18.30;;;12.07;;
47625;SDS011;33342;45.574;9.252;2023-02-28T11:33:18;20.50;;;12.25;;
47625;SDS011;33342;45.574;9.252;2023-02-28T11:35:54;19.95;;;11.88;;
47625;SDS011;33342;45.574;9.252;2023-02-28T11:38:25;20.40;;;13.07;;
47625;SDS011;33342;45.574;9.252;2023-02-28T11:43:27;22.60;;;12.65;;
47625;SDS011;33342;45.574;9.252;2023-02-28T11:46:18;20.42;;;12.80;;
47625;SDS011;33342;45.574;9.252;2023-02-28T11:51:48;19.38;;;13.32;;
47625;SDS011;33342;45.574;9.252;2023-02-28T12:00:06;18.23;;;11.35;;
47625;SDS011;33342;45.574;9.252;2023-02-28T12:05:33;23.58;;;12.57;;
47625;SDS011;33342;45.574;9.252;2023-02-28T12:13:38;21.35;;;12.55;;
47625;SDS011;33342;45.574;9.252;2023-02-28T12:16:38;21.65;;;13.07;;
47625;SDS011;33342;45.574;9.252;2023-02-28T12:27:40;20.88;;;13.60;;
47625;SDS011;33342;45.574;9.252;2023-02-28T12:32:41;29.10;;;13.90;;
47625;SDS011;33342;45.574;9.252;2023-02-28T12:35:13;18.92;;;12.10;;
47625;SDS011;33342;45.574;9.252;2023-02-28T12:37:47;22.10;;;13.45;;
47625;SDS011;33342;45.574;9.252;2023-02-28T12:40:44;19.02;;;12.57;;
47625;SDS011;33342;45.574;9.252;2023-02-28T12:43:17;22.00;;;12.55;;
47625;SDS011;33342;45.574;9.252;2023-02-28T12:45:50;24.38;;;12.65;;
47625;SDS011;33342;45.574;9.252;2023-02-28T12:48:39;22.27;;;12.43;;
47625;SDS011;33342;45.574;9.252;2023-02-28T12:51:10;20.55;;;12.68;;
47625;SDS011;33342;45.574;9.252;2023-02-28T12:56:30;21.65;;;13.00;;
47625;SDS011;33342;45.574;9.252;2023-02-28T13:05:02;20.85;;;13.15;;
47625;SDS011;33342;45.574;9.252;2023-02-28T13:10:22;20.88;;;12.88;;
47625;SDS011;33342;45.574;9.252;2023-02-28T13:12:50;20.38;;;12.95;;
47625;SDS011;33342;45.574;9.252;2023-02-28T13:15:25;22.48;;;13.68;;
47625;SDS011;33342;45.574;9.252;2023-02-28T13:17:56;22.17;;;13.95;;
47625;SDS011;33342;45.574;9.252;2023-02-28T13:20:25;22.30;;;13.55;;
47625;SDS011;33342;45.574;9.252;2023-02-28T13:22:56;21.10;;;13.27;;
47625;SDS011;33342;45.574;9.252;2023-02-28T13:28:01;20.15;;;12.30;;
47625;SDS011;33342;45.574;9.252;2023-02-28T13:33:27;23.60;;;13.27;;
47625;SDS011;33342;45.574;9.252;2023-02-28T13:39:02;23.42;;;13.13;;
47625;SDS011;33342;45.574;9.252;2023-02-28T13:41:50;23.98;;;13.18;;
47625;SDS011;33342;45.574;9.252;2023-02-28T13:44:21;18.92;;;11.68;;
47625;SDS011;33342;45.574;9.252;2023-02-28T13:51:53;21.90;;;13.63;;
47625;SDS011;33342;45.574;9.252;2023-02-28T13:57:04;20.05;;;12.45;;
47625;SDS011;33342;45.574;9.252;2023-02-28T14:02:48;27.77;;;13.35;;
47625;SDS011;33342;45.574;9.252;2023-02-28T14:05:41;30.35;;;13.35;;
47625;SDS011;33342;45.574;9.252;2023-02-28T14:08:16;22.05;;;11.38;;
47625;SDS011;33342;45.574;9.252;2023-02-28T14:10:48;19.55;;;11.63;;
47625;SDS011;33342;45.574;9.252;2023-02-28T14:16:12;18.55;;;12.50;;
47625;SDS011;33342;45.574;9.252;2023-02-28T14:18:47;20.63;;;12.73;;
47625;SDS011;33342;45.574;9.252;2023-02-28T14:21:33;19.23;;;13.32;;
47625;SDS011;33342;45.574;9.252;2023-02-28T14:24:06;19.52;;;11.93;;
47625;SDS011;33342;45.574;9.252;2023-02-28T14:32:27;18.75;;;12.65;;
47625;SDS011;33342;45.574;9.252;2023-02-28T14:38:25;18.38;;;12.27;;
47625;SDS011;33342;45.574;9.252;2023-02-28T14:40:56;20.35;;;12.45;;
47625;SDS011;33342;45.574;9.252;2023-02-28T14:43:27;20.63;;;12.90;;
47625;SDS011;33342;45.574;9.252;2023-02-28T14:45:55;19.85;;;12.65;;
47625;SDS011;33342;45.574;9.252;2023-02-28T14:48:24;19.85;;;12.65;;
47625;SDS011;33342;45.574;9.252;2023-02-28T14:50:55;23.05;;;13.18;;
47625;SDS011;33342;45.574;9.252;2023-02-28T14:53:26;19.00;;;12.60;;
47625;SDS011;33342;45.574;9.252;2023-02-28T14:55:55;20.50;;;12.43;;
47625;SDS011;33342;45.574;9.252;2023-02-28T14:58:26;20.13;;;12.20;;
47625;SDS011;33342;45.574;9.252;2023-02-28T15:00:56;20.45;;;12.85;;
47625;SDS011;33342;45.574;9.252;2023-02-28T15:05:58;19.38;;;12.85;;
47625;SDS011;33342;45.574;9.252;2023-02-28T15:08:32;21.13;;;13.18;;
47625;SDS011;33342;45.574;9.252;2023-02-28T15:11:12;20.27;;;12.85;;
47625;SDS011;33342;45.574;9.252;2023-02-28T15:13:42;20.88;;;17.77;;
47625;SDS011;33342;45.574;9.252;2023-02-28T15:16:16;20.30;;;17.10;;
47625;SDS011;33342;45.574;9.252;2023-02-28T15:18:55;21.30;;;17.98;;
47625;SDS011;33342;45.574;9.252;2023-02-28T15:21:43;21.00;;;18.02;;
47625;SDS011;33342;45.574;9.252;2023-02-28T15:26:53;23.77;;;17.45;;
47625;SDS011;33342;45.574;9.252;2023-02-28T15:29:24;21.25;;;17.27;;
47625;SDS011;33342;45.574;9.252;2023-02-28T15:39:57;21.30;;;17.33;;
47625;SDS011;33342;45.574;9.252;2023-02-28T15:42:36;20.92;;;17.45;;
47625;SDS011;33342;45.574;9.252;2023-02-28T15:45:03;21.92;;;18.45;;
47625;SDS011;33342;45.574;9.252;2023-02-28T15:47:30;21.38;;;17.98;;
47625;SDS011;33342;45.574;9.252;2023-02-28T15:49:59;21.63;;;18.48;;
47625;SDS011;33342;45.574;9.252;2023-02-28T15:52:50;23.88;;;18.13;;
47625;SDS011;33342;45.574;9.252;2023-02-28T15:55:22;20.17;;;17.23;;
47625;SDS011;33342;45.574;9.252;2023-02-28T15:57:53;20.73;;;18.17;;
47625;SDS011;33342;45.574;9.252;2023-02-28T16:00:25;20.75;;;18.38;;
47625;SDS011;33342;45.574;9.252;2023-02-28T16:02:53;22.15;;;18.55;;
47625;SDS011;33342;45.574;9.252;2023-02-28T16:05:25;20.65;;;17.50;;
47625;SDS011;33342;45.574;9.252;2023-02-28T16:07:55;22.92;;;18.65;;
47625;SDS011;33342;45.574;9.252;2023-02-28T16:10:24;19.08;;;13.23;;
47625;SDS011;33342;45.574;9.252;2023-02-28T16:12:53;19.10;;;13.73;;
47625;SDS011;33342;45.574;9.252;2023-02-28T16:15:26;19.63;;;14.10;;
47625;SDS011;33342;45.574;9.252;2023-02-28T16:17:56;20.10;;;14.60;;
47625;SDS011;33342;45.574;9.252;2023-02-28T16:20:25;19.83;;;13.00;;
47625;SDS011;33342;45.574;9.252;2023-02-28T16:22:56;20.40;;;14.25;;
47625;SDS011;33342;45.574;9.252;2023-02-28T16:26:02;21.90;;;15.23;;
47625;SDS011;33342;45.574;9.252;2023-02-28T16:28:23;21.30;;;14.13;;
47625;SDS011;33342;45.574;9.252;2023-02-28T16:30:57;21.38;;;13.35;;
47625;SDS011;33342;45.574;9.252;2023-02-28T16:33:29;19.90;;;12.80;;
47625;SDS011;33342;45.574;9.252;2023-02-28T16:35:57;21.40;;;13.32;;
47625;SDS011;33342;45.574;9.252;2023-02-28T16:38:25;22.42;;;13.27;;
47625;SDS011;33342;45.574;9.252;2023-02-28T16:40:53;21.63;;;13.93;;
47625;SDS011;33342;45.574;9.252;2023-02-28T16:43:24;25.02;;;14.30;;
47625;SDS011;33342;45.574;9.252;2023-02-28T16:45:56;22.90;;;14.70;;
47625;SDS011;33342;45.574;9.252;2023-02-28T16:48:28;31.65;;;16.60;;
47625;SDS011;33342;45.574;9.252;2023-02-28T16:50:56;26.30;;;14.88;;
47625;SDS011;33342;45.574;9.252;2023-02-28T16:53:23;27.30;;;15.32;;
47625;SDS011;33342;45.574;9.252;2023-02-28T16:55:50;21.60;;;14.10;;
47625;SDS011;33342;45.574;9.252;2023-02-28T16:58:17;25.98;;;13.98;;
47625;SDS011;33342;45.574;9.252;2023-02-28T17:00:45;20.95;;;13.57;;
47625;SDS011;33342;45.574;9.252;2023-02-28T17:03:25;22.67;;;14.70;;
47625;SDS011;33342;45.574;9.252;2023-02-28T17:08:25;22.60;;;14.05;;
47625;SDS011;33342;45.574;9.252;2023-02-28T17:10:55;23.38;;;13.95;;
47625;SDS011;33342;45.574;9.252;2023-02-28T17:13:22;25.83;;;14.65;;
47625;SDS011;33342;45.574;9.252;2023-02-28T17:15:49;23.98;;;14.23;;
47625;SDS011;33342;45.574;9.252;2023-02-28T17:18:17;26.98;;;15.75;;
47625;SDS011;33342;45.574;9.252;2023-02-28T17:20:47;24.67;;;14.07;;
47625;SDS011;33342;45.574;9.252;2023-02-28T17:23:15;22.48;;;14.57;;
47625;SDS011;33342;45.574;9.252;2023-02-28T17:25:42;26.55;;;14.98;;
47625;SDS011;33342;45.574;9.252;2023-02-28T17:28:22;29.85;;;14.40;;